Time;durP1;ratioP1;P1;durP2;ratioP2;P2;SDS_P1;SDS_P2;PMS_P1;PMS_P2;Temp;Humidity;BMP_temperature;BMP_pressure;BME280_temperature;BME280_humidity;BME280_pressure;Samples;Min_cycle;Max_cycle;Signal;HPM_P1;HPM_P2
2024/01/21 00:00:46;;;;;;;10.53;7.10;;;;;;;;;;4998002;28;20464;-86
2024/01/21 00:03:13;;;;;;;10.73;6.13;;;;;;;;;;4997688;28;20839;-86
2024/01/21 00:05:41;;;;;;;8.00;5.17;;;;;;;;;;4997942;28;20450;-84
2024/01/21 00:08:09;;;;;;;9.00;5.53;;;;;;;;;;5000270;28;20426;-85
2024/01/21 00:10:40;;;;;;;9.93;5.47;;;;;;;;;;4994258;28;20571;-84
2024/01/21 00:13:08;;;;;;;10.43;6.27;;;;;;;;;;5005760;28;20536;-84
2024/01/21 00:15:35;;;;;;;11.30;6.20;;;;;;;;;;5005574;28;20604;-84
2024/01/21 00:18:03;;;;;;;9.43;6.00;;;;;;;;;;4997166;28;20541;-86
2024/01/21 00:20:32;;;;;;;4.20;3.80;;;;;;;;;;4996754;28;20536;-83
2024/01/21 00:23:00;;;;;;;8.33;6.30;;;;;;;;;;4994383;28;20440;-85
2024/01/21 00:25:27;;;;;;;9.03;5.23;;;;;;;;;;4996063;28;20440;-87
2024/01/21 00:27:54;;;;;;;9.20;6.07;;;;;;;;;;4981217;28;20458;-86
2024/01/21 00:30:21;;;;;;;10.13;6.17;;;;;;;;;;4977820;28;20513;-85
2024/01/21 00:32:48;;;;;;;11.87;7.27;;;;;;;;;;4973847;28;20491;-87
2024/01/21 00:35:16;;;;;;;8.80;6.60;;;;;;;;;;4992273;28;20493;-86
2024/01/21 00:37:43;;;;;;;6.50;4.43;;;;;;;;;;4988858;28;20483;-86
2024/01/21 00:40:10;;;;;;;13.13;8.00;;;;;;;;;;4996568;28;20464;-85
2024/01/21 00:42:37;;;;;;;12.73;8.57;;;;;;;;;;4976531;28;20458;-86
2024/01/21 00:45:05;;;;;;;9.50;6.97;;;;;;;;;;4972240;28;20552;-84
2024/01/21 00:47:32;;;;;;;9.93;5.90;;;;;;;;;;4976098;28;20468;-83
2024/01/21 00:49:59;;;;;;;11.33;6.53;;;;;;;;;;4982849;28;20483;-85
2024/01/21 00:52:27;;;;;;;11.43;7.10;;;;;;;;;;4974543;28;20471;-85
2024/01/21 00:54:56;;;;;;;7.90;6.47;;;;;;;;;;4992171;28;20451;-84
2024/01/21 00:57:23;;;;;;;13.73;7.40;;;;;;;;;;4991939;28;20483;-85
2024/01/21 00:59:50;;;;;;;11.60;6.80;;;;;;;;;;4991813;28;20468;-85
2024/01/21 01:02:17;;;;;;;11.50;7.67;;;;;;;;;;4992025;28;20466;-85
2024/01/21 01:04:44;;;;;;;14.40;8.93;;;;;;;;;;4994300;28;22568;-87
2024/01/21 01:07:12;;;;;;;11.80;8.93;;;;;;;;;;4991808;28;20997;-85
2024/01/21 01:09:39;;;;;;;14.70;7.60;;;;;;;;;;4991625;28;20624;-85
2024/01/21 01:12:06;;;;;;;8.40;5.13;;;;;;;;;;4991675;28;20470;-86
2024/01/21 01:14:34;;;;;;;12.17;6.80;;;;;;;;;;4977921;28;20458;-84
2024/01/21 01:17:01;;;;;;;18.80;9.60;;;;;;;;;;4987548;28;20483;-88
2024/01/21 01:19:28;;;;;;;13.13;8.73;;;;;;;;;;4999001;28;20568;-86
2024/01/21 01:21:55;;;;;;;13.23;8.70;;;;;;;;;;4997432;28;20450;-84
2024/01/21 01:24:22;;;;;;;14.00;8.20;;;;;;;;;;4995542;28;20466;-87
2024/01/21 01:26:49;;;;;;;13.40;8.60;;;;;;;;;;4997355;28;21108;-84
2024/01/21 01:29:16;;;;;;;10.83;6.57;;;;;;;;;;4997105;28;22094;-85
2024/01/21 01:31:43;;;;;;;11.70;7.70;;;;;;;;;;4996146;28;20447;-87
2024/01/21 01:34:11;;;;;;;12.07;6.40;;;;;;;;;;4982934;28;20506;-85
2024/01/21 01:36:38;;;;;;;14.60;9.47;;;;;;;;;;4993356;28;20451;-85
2024/01/21 01:39:07;;;;;;;13.00;7.20;;;;;;;;;;4994408;28;20520;-86
2024/01/21 01:41:34;;;;;;;15.80;9.43;;;;;;;;;;5000678;28;20430;-86
2024/01/21 01:44:02;;;;;;;20.23;10.53;;;;;;;;;;5009671;28;20466;-86
2024/01/21 01:46:29;;;;;;;15.10;8.73;;;;;;;;;;4989968;28;20439;-84
2024/01/21 01:48:57;;;;;;;9.30;5.43;;;;;;;;;;4989421;28;20458;-83
2024/01/21 01:51:24;;;;;;;15.80;8.03;;;;;;;;;;4992526;28;20538;-87
2024/01/21 01:53:51;;;;;;;16.67;8.63;;;;;;;;;;4980495;28;20461;-84
2024/01/21 01:56:19;;;;;;;13.20;7.23;;;;;;;;;;4994093;28;21140;-86
2024/01/21 01:58:47;;;;;;;16.30;8.23;;;;;;;;;;4985652;28;20482;-86
2024/01/21 02:01:14;;;;;;;15.33;9.20;;;;;;;;;;4990179;28;21134;-86
2024/01/21 02:03:42;;;;;;;16.53;10.23;;;;;;;;;;4980947;28;20476;-85
2024/01/21 02:06:09;;;;;;;15.20;8.30;;;;;;;;;;4988364;28;20452;-83
2024/01/21 02:08:36;;;;;;;14.47;8.77;;;;;;;;;;4982985;28;20491;-84
2024/01/21 02:11:04;;;;;;;10.70;5.90;;;;;;;;;;4983096;28;20486;-85
2024/01/21 02:13:31;;;;;;;16.50;8.30;;;;;;;;;;4986797;28;20459;-85
2024/01/21 02:16:00;;;;;;;11.03;7.20;;;;;;;;;;4986522;28;20447;-86
2024/01/21 02:18:27;;;;;;;16.73;9.60;;;;;;;;;;4994085;28;20472;-84
2024/01/21 02:20:54;;;;;;;14.67;8.33;;;;;;;;;;4978673;28;20486;-87
2024/01/21 02:23:21;;;;;;;11.93;7.57;;;;;;;;;;5000827;28;20456;-85
2024/01/21 02:25:48;;;;;;;11.57;7.13;;;;;;;;;;5001958;28;20485;-86
2024/01/21 02:28:15;;;;;;;10.83;7.20;;;;;;;;;;5005734;28;20531;-86
2024/01/21 02:30:42;;;;;;;10.40;7.17;;;;;;;;;;5006740;28;20468;-86
2024/01/21 02:33:10;;;;;;;14.77;7.67;;;;;;;;;;5002131;28;20464;-85
2024/01/21 02:35:37;;;;;;;10.30;6.67;;;;;;;;;;4987999;28;21157;-84
2024/01/21 02:38:04;;;;;;;10.40;7.20;;;;;;;;;;4983924;28;20487;-83
2024/01/21 02:40:32;;;;;;;13.80;8.47;;;;;;;;;;4993421;28;20473;-88
2024/01/21 02:42:59;;;;;;;8.20;4.80;;;;;;;;;;4980449;28;20464;-86
2024/01/21 02:45:26;;;;;;;13.23;9.03;;;;;;;;;;4980005;28;20463;-84
2024/01/21 02:47:54;;;;;;;13.40;9.87;;;;;;;;;;4986513;28;20472;-84
2024/01/21 02:50:21;;;;;;;8.10;6.00;;;;;;;;;;4978592;28;20464;-85
2024/01/21 02:52:48;;;;;;;10.73;6.00;;;;;;;;;;4991582;28;20838;-85
2024/01/21 02:55:15;;;;;;;14.87;6.70;;;;;;;;;;4988091;28;20463;-85
2024/01/21 02:57:42;;;;;;;8.13;5.60;;;;;;;;;;4992851;28;20479;-84
2024/01/21 03:00:10;;;;;;;11.23;7.60;;;;;;;;;;4976640;28;20479;-86
2024/01/21 03:02:37;;;;;;;12.57;6.50;;;;;;;;;;4988974;28;20595;-84
2024/01/21 03:05:04;;;;;;;12.20;7.97;;;;;;;;;;4997988;28;20479;-87
2024/01/21 03:07:32;;;;;;;10.50;6.53;;;;;;;;;;4976995;28;20471;-86
2024/01/21 03:09:59;;;;;;;11.97;7.57;;;;;;;;;;4994145;28;20474;-84
2024/01/21 03:12:26;;;;;;;6.57;5.30;;;1.40;93.40;;;;;;4995519;28;20499;-86
2024/01/21 03:14:53;;;;;;;8.60;4.73;;;0.80;91.20;;;;;;4972815;28;20503;-87
2024/01/21 03:17:19;;;;;;;7.07;5.10;;;0.80;91.30;;;;;;4966700;28;20474;-85
2024/01/21 03:19:46;;;;;;;10.60;7.10;;;0.70;91.40;;;;;;4962072;28;20482;-85
2024/01/21 03:22:13;;;;;;;11.17;6.80;;;0.80;91.30;;;;;;4990526;28;20820;-85
2024/01/21 03:24:40;;;;;;;10.73;6.50;;;0.80;91.20;;;;;;4982074;28;20440;-88
2024/01/21 03:27:06;;;;;;;13.30;7.97;;;0.90;91.20;;;;;;4993283;28;20524;-87
2024/01/21 03:29:33;;;;;;;9.37;5.77;;;0.70;91.10;;;;;;4992776;28;20487;-83
2024/01/21 03:32:00;;;;;;;15.30;8.53;;;0.80;91.10;;;;;;4974751;28;20464;-84
2024/01/21 03:34:26;;;;;;;11.77;7.20;;;0.70;91.20;;;;;;4978587;28;20459;-86
2024/01/21 03:36:53;;;;;;;15.37;8.13;;;0.70;91.30;;;;;;4974889;28;20462;-84
2024/01/21 03:39:20;;;;;;;9.20;6.33;;;0.80;91.50;;;;;;4975037;28;20503;-85
2024/01/21 03:41:47;;;;;;;8.43;5.83;;;0.90;91.50;;;;;;4974297;28;20502;-86
2024/01/21 03:44:14;;;;;;;15.43;7.53;;;0.80;91.40;;;;;;4980698;28;20489;-86
2024/01/21 03:46:41;;;;;;;10.13;6.57;;;0.90;91.40;;;;;;4981220;28;20464;-85
2024/01/21 03:49:08;;;;;;;11.10;7.50;;;0.90;91.40;;;;;;4982681;28;20426;-83
2024/01/21 03:51:34;;;;;;;8.53;6.70;;;0.90;91.10;;;;;;4978403;28;20480;-83
2024/01/21 03:54:01;;;;;;;11.77;7.00;;;0.90;91.00;;;;;;4974976;28;20482;-84
2024/01/21 03:56:28;;;;;;;17.93;8.17;;;0.80;91.00;;;;;;4984151;28;20463;-83
2024/01/21 03:58:54;;;;;;;9.03;5.97;;;0.80;90.90;;;;;;4973822;28;20520;-84
2024/01/21 04:01:21;;;;;;;14.33;8.70;;;0.60;91.00;;;;;;4970046;28;20490;-84
2024/01/21 04:03:48;;;;;;;18.40;8.90;;;0.70;91.10;;;;;;4965971;28;20557;-84
2024/01/21 04:06:15;;;;;;;8.03;5.40;;;0.60;91.00;;;;;;4966615;28;20466;-84
2024/01/21 04:08:42;;;;;;;11.50;7.37;;;0.70;91.10;;;;;;4983440;28;20459;-84
2024/01/21 04:11:08;;;;;;;12.73;6.90;;;0.70;91.10;;;;;;4985169;28;20480;-84
2024/01/21 04:13:35;;;;;;;9.37;4.73;;;0.70;91.00;;;;;;4967428;28;20460;-82
2024/01/21 04:16:02;;;;;;;10.33;7.90;;;0.60;91.00;;;;;;4967052;28;20476;-82
2024/01/21 04:18:29;;;;;;;7.17;4.27;;;0.60;91.00;;;;;;4982476;28;20590;-85
2024/01/21 04:20:55;;;;;;;10.60;5.37;;;0.60;91.00;;;;;;4999107;28;20539;-86
2024/01/21 04:23:22;;;;;;;10.30;7.20;;;0.60;91.00;;;;;;4993159;28;20440;-85
2024/01/21 04:25:49;;;;;;;10.60;6.47;;;0.60;91.00;;;;;;5011453;28;20482;-84
2024/01/21 04:28:16;;;;;;;10.57;6.67;;;0.70;91.00;;;;;;4995819;28;20523;-85
2024/01/21 04:30:43;;;;;;;15.10;6.00;;;0.50;90.90;;;;;;5012195;28;20497;-84
2024/01/21 04:33:10;;;;;;;6.90;4.40;;;0.60;91.10;;;;;;4987536;28;20452;-84
2024/01/21 04:35:37;;;;;;;15.90;8.53;;;0.60;90.90;;;;;;5004894;28;20539;-81
2024/01/21 04:38:04;;;;;;;16.87;7.60;;;0.60;90.70;;;;;;4986162;28;20487;-85
2024/01/21 04:40:30;;;;;;;9.37;6.37;;;0.60;90.80;;;;;;4982225;28;20479;-85
2024/01/21 04:42:57;;;;;;;6.90;4.33;;;0.70;90.70;;;;;;4978505;28;20986;-83
2024/01/21 04:45:24;;;;;;;10.73;6.70;;;0.70;90.70;;;;;;4981495;28;20542;-83
2024/01/21 04:47:50;;;;;;;4.43;3.40;;;0.70;90.60;;;;;;4995521;28;20448;-84
2024/01/21 04:50:17;;;;;;;11.87;6.20;;;0.70;90.70;;;;;;4978346;28;20490;-82
2024/01/21 04:52:44;;;;;;;6.73;3.73;;;0.70;90.60;;;;;;4972417;28;20467;-86
2024/01/21 04:55:11;;;;;;;13.57;8.50;;;0.70;90.50;;;;;;4992146;28;20476;-84
2024/01/21 04:57:38;;;;;;;10.73;6.17;;;0.70;90.60;;;;;;4973476;28;20454;-81
2024/01/21 05:00:06;;;;;;;12.93;6.77;;;0.70;90.60;;;;;;4974068;28;20528;-84
2024/01/21 05:02:33;;;;;;;7.90;4.00;;;0.70;90.60;;;;;;4958606;28;20447;-84
2024/01/21 05:04:59;;;;;;;7.20;4.90;;;0.70;90.90;;;;;;4962004;28;20448;-83
2024/01/21 05:07:26;;;;;;;10.30;6.70;;;0.60;90.70;;;;;;4977500;28;20464;-82
2024/01/21 05:09:54;;;;;;;13.83;6.20;;;0.60;90.80;;;;;;4966755;28;21003;-83
2024/01/21 05:12:21;;;;;;;10.73;6.80;;;0.80;90.80;;;;;;4973988;28;20491;-84
2024/01/21 05:14:48;;;;;;;12.20;7.70;;;0.70;90.60;;;;;;4978539;28;20500;-83
2024/01/21 05:17:15;;;;;;;12.70;6.33;;;0.60;90.70;;;;;;5006155;28;20454;-82
2024/01/21 05:19:41;;;;;;;11.50;6.83;;;0.90;90.70;;;;;;4998362;28;20518;-83
2024/01/21 05:22:09;;;;;;;9.40;6.87;;;1.00;90.50;;;;;;4978490;28;21100;-82
2024/01/21 05:24:36;;;;;;;9.83;6.93;;;1.00;90.40;;;;;;4977736;28;20495;-83
2024/01/21 05:27:03;;;;;;;11.37;7.73;;;0.90;89.90;;;;;;4973991;28;21990;-84
2024/01/21 05:29:29;;;;;;;8.67;5.80;;;0.80;90.00;;;;;;4978283;28;20479;-84
2024/01/21 05:31:58;;;;;;;8.07;4.93;;;0.90;90.10;;;;;;4982664;28;20537;-86
2024/01/21 05:34:25;;;;;;;9.23;5.60;;;1.00;89.50;;;;;;4997668;28;20448;-84
2024/01/21 05:36:52;;;;;;;5.20;4.70;;;1.00;88.90;;;;;;4974231;28;20467;-85
2024/01/21 05:39:18;;;;;;;9.27;5.73;;;1.10;89.00;;;;;;4989630;28;20493;-85
2024/01/21 05:42:00;;;;;;;8.77;5.67;;;1.10;89.00;;;;;;4992371;28;20803;-85
2024/01/21 05:44:27;;;;;;;8.80;4.83;;;1.00;88.80;;;;;;4975141;28;20444;-84
2024/01/21 05:46:54;;;;;;;7.50;5.43;;;1.10;89.10;;;;;;4993051;28;20514;-85
2024/01/21 05:49:25;;;;;;;14.40;6.13;;;0.90;88.80;;;;;;4990162;28;20480;-85
2024/01/21 05:51:51;;;;;;;7.37;4.37;;;1.00;89.50;;;;;;4990278;28;20471;-83
2024/01/21 05:54:18;;;;;;;10.90;6.10;;;1.10;89.30;;;;;;4973784;28;20451;-85
2024/01/21 05:56:46;;;;;;;11.03;5.90;;;1.10;89.00;;;;;;4974950;28;20457;-87
2024/01/21 05:59:16;;;;;;;9.60;5.00;;;1.00;88.60;;;;;;4990654;28;20488;-83
2024/01/21 06:01:44;;;;;;;11.80;5.50;;;1.00;88.80;;;;;;4988347;28;20494;-83
2024/01/21 06:04:12;;;;;;;11.83;6.37;;;1.10;88.40;;;;;;4973439;28;20813;-84
2024/01/21 06:06:39;;;;;;;8.03;6.17;;;1.00;88.30;;;;;;4990924;28;20444;-83
2024/01/21 06:09:07;;;;;;;7.57;4.20;;;0.90;88.70;;;;;;4991855;28;21741;-84
2024/01/21 06:11:34;;;;;;;9.77;5.87;;;1.00;88.70;;;;;;4990944;28;20467;-85
2024/01/21 06:14:01;;;;;;;10.30;4.67;;;1.00;88.70;;;;;;4976882;28;20557;-83
2024/01/21 06:16:28;;;;;;;7.50;4.63;;;0.90;88.50;;;;;;4993018;28;20459;-81
2024/01/21 06:18:54;;;;;;;8.07;5.10;;;0.90;88.90;;;;;;4975762;28;20505;-85
2024/01/21 06:21:21;;;;;;;13.30;6.70;;;0.80;89.40;;;;;;4995779;28;20570;-85
2024/01/21 06:23:48;;;;;;;8.20;5.03;;;0.80;89.40;;;;;;4981138;28;20542;-84
2024/01/21 06:26:19;;;;;;;7.17;5.00;;;0.90;89.90;;;;;;4994177;28;20465;-85
2024/01/21 06:28:47;;;;;;;5.60;4.43;;;0.90;89.80;;;;;;4992683;28;20456;-84
2024/01/21 06:31:13;;;;;;;12.13;6.57;;;0.90;89.70;;;;;;4972723;28;20475;-85
2024/01/21 06:33:41;;;;;;;5.83;4.77;;;0.90;89.90;;;;;;4970423;28;20478;-83
2024/01/21 06:36:09;;;;;;;6.53;4.60;;;0.80;90.00;;;;;;4978535;28;20483;-85
2024/01/21 06:38:37;;;;;;;7.90;5.60;;;0.90;90.00;;;;;;4976167;28;20480;-83
2024/01/21 06:41:04;;;;;;;12.77;6.13;;;0.90;90.10;;;;;;4989704;28;20479;-83
2024/01/21 06:43:31;;;;;;;10.63;5.13;;;0.90;90.20;;;;;;4994569;28;20465;-84
2024/01/21 06:45:58;;;;;;;9.10;6.03;;;0.90;90.20;;;;;;4977537;28;20458;-83
2024/01/21 06:48:25;;;;;;;9.83;6.00;;;0.90;90.30;;;;;;4977513;28;20458;-86
2024/01/21 06:50:53;;;;;;;7.80;5.20;;;1.00;90.50;;;;;;4993086;28;20484;-82
2024/01/21 06:53:20;;;;;;;8.47;5.57;;;1.10;90.40;;;;;;4972463;28;20449;-83
2024/01/21 06:55:47;;;;;;;5.33;3.87;;;1.00;90.20;;;;;;4993331;28;20467;-83
2024/01/21 06:58:13;;;;;;;6.90;5.10;;;0.90;90.30;;;;;;4976232;28;20455;-85
2024/01/21 07:00:40;;;;;;;8.83;5.43;;;1.00;90.50;;;;;;4991498;28;20479;-83
2024/01/21 07:03:07;;;;;;;10.03;5.53;;;1.00;90.40;;;;;;4977622;28;20456;-83
2024/01/21 07:05:34;;;;;;;9.43;5.10;;;0.90;90.40;;;;;;4993172;28;20469;-84
2024/01/21 07:08:01;;;;;;;9.13;4.60;;;0.90;90.40;;;;;;4991692;28;20463;-83
2024/01/21 07:10:28;;;;;;;9.90;5.00;;;0.90;90.50;;;;;;4990906;28;20480;-83
2024/01/21 07:12:56;;;;;;;7.80;5.43;;;0.90;90.70;;;;;;4976317;28;20459;-86
2024/01/21 07:15:24;;;;;;;9.43;5.23;;;0.90;90.70;;;;;;4981327;28;20528;-84
2024/01/21 07:17:50;;;;;;;10.40;7.10;;;0.90;90.70;;;;;;4991042;28;20454;-84
2024/01/21 07:20:17;;;;;;;9.47;6.00;;;0.90;90.80;;;;;;4977948;28;20495;-82
2024/01/21 07:22:44;;;;;;;10.87;5.97;;;1.00;90.90;;;;;;4975107;28;20465;-87
2024/01/21 07:25:14;;;;;;;11.30;6.30;;;1.10;91.10;;;;;;4981269;28;20574;-87
2024/01/21 07:27:42;;;;;;;8.97;5.47;;;1.20;90.90;;;;;;4993874;28;20445;-84
2024/01/21 07:30:12;;;;;;;10.70;6.47;;;1.20;90.80;;;;;;4992190;28;20651;-86
2024/01/21 07:32:40;;;;;;;8.90;5.70;;;1.20;90.80;;;;;;4995379;28;21916;-85
2024/01/21 07:35:10;;;;;;;7.10;5.30;;;1.10;90.70;;;;;;4986278;28;21903;-84
2024/01/21 07:37:37;;;;;;;10.70;5.50;;;1.30;90.90;;;;;;4997591;28;20462;-84
2024/01/21 07:40:06;;;;;;;9.13;6.23;;;1.40;90.70;;;;;;4996482;28;20529;-82
2024/01/21 07:42:33;;;;;;;8.63;5.70;;;1.40;90.80;;;;;;4996425;28;20512;-86
2024/01/21 07:45:00;;;;;;;9.67;6.07;;;1.30;90.80;;;;;;4977653;28;20459;-83
2024/01/21 07:47:27;;;;;;;12.33;5.90;;;1.40;90.90;;;;;;4988051;28;20464;-85
2024/01/21 07:49:55;;;;;;;11.73;6.43;;;1.40;90.90;;;;;;4991182;28;20470;-87
2024/01/21 07:52:22;;;;;;;9.37;5.33;;;1.40;91.00;;;;;;5007032;28;20471;-85
2024/01/21 07:54:48;;;;;;;9.13;4.57;;;1.60;91.10;;;;;;5002491;28;20443;-85
2024/01/21 07:57:15;;;;;;;12.37;6.23;;;1.60;91.00;;;;;;4993032;28;20452;-86
2024/01/21 07:59:42;;;;;;;11.13;6.93;;;1.60;91.00;;;;;;4977573;28;20476;-85
2024/01/21 08:02:09;;;;;;;7.27;4.73;;;1.50;91.00;;;;;;4998766;28;20467;-85
2024/01/21 08:04:36;;;;;;;8.40;5.60;;;1.50;91.40;;;;;;4979714;28;20455;-86
2024/01/21 08:07:03;;;;;;;5.73;4.10;;;1.50;91.60;;;;;;4997134;28;20558;-84
2024/01/21 08:09:30;;;;;;;6.87;5.00;;;1.50;91.50;;;;;;4984052;28;21002;-86
2024/01/21 08:11:57;;;;;;;7.83;4.67;;;1.50;91.50;;;;;;4977368;28;20489;-83
2024/01/21 08:14:23;;;;;;;5.50;4.37;;;1.50;91.50;;;;;;4980307;28;20466;-84
2024/01/21 08:16:50;;;;;;;8.43;4.73;;;1.50;91.50;;;;;;4993282;28;20454;-86
2024/01/21 08:19:19;;;;;;;5.63;4.70;;;1.50;91.60;;;;;;4978035;28;20560;-85
2024/01/21 08:21:47;;;;;;;5.03;4.23;;;1.60;91.70;;;;;;4995879;28;20523;-83
2024/01/21 08:24:15;;;;;;;7.87;6.53;;;1.60;91.60;;;;;;4979172;28;20455;-86
2024/01/21 08:26:42;;;;;;;5.70;4.60;;;1.60;91.70;;;;;;4991911;28;20487;-87
2024/01/21 08:29:11;;;;;;;5.27;4.43;;;1.60;91.60;;;;;;4981223;28;20427;-84
2024/01/21 08:31:43;;;;;;;7.50;4.30;;;1.60;91.60;;;;;;4994742;28;20450;-84
2024/01/21 08:34:14;;;;;;;5.80;4.90;;;1.60;91.80;;;;;;4968473;28;20495;-85
2024/01/21 08:36:42;;;;;;;7.20;4.87;;;1.60;91.80;;;;;;4983579;28;20439;-84
2024/01/21 08:39:09;;;;;;;7.00;5.00;;;1.70;91.80;;;;;;4996631;28;20500;-85
2024/01/21 08:41:36;;;;;;;8.93;5.20;;;1.70;91.70;;;;;;4985049;28;20518;-87
2024/01/21 08:44:03;;;;;;;5.90;4.73;;;1.70;91.70;;;;;;5009019;28;20464;-84
2024/01/21 08:46:30;;;;;;;8.17;5.13;;;1.80;91.60;;;;;;4992562;28;20430;-84
2024/01/21 08:48:57;;;;;;;11.03;7.73;;;1.70;91.60;;;;;;5008393;28;20436;-82
2024/01/21 08:51:24;;;;;;;6.73;4.70;;;1.70;91.60;;;;;;5004790;28;20550;-86
2024/01/21 08:53:57;;;;;;;9.67;5.23;;;1.70;91.70;;;;;;5000304;28;20489;-86
2024/01/21 08:56:35;;;;;;;10.33;6.00;;;1.90;91.40;;;;;;4979733;28;20478;-84
2024/01/21 08:59:02;;;;;;;10.53;6.70;;;2.10;91.20;;;;;;4994402;28;20562;-83
2024/01/21 09:01:29;;;;;;;12.00;7.10;;;2.10;91.10;;;;;;4997387;28;20434;-87
2024/01/21 09:03:58;;;;;;;8.50;6.53;;;2.20;91.00;;;;;;4980192;28;20457;-85
2024/01/21 09:06:25;;;;;;;12.87;6.47;;;2.30;90.90;;;;;;4997532;28;20515;-86
2024/01/21 09:08:54;;;;;;;6.00;4.07;;;2.50;90.80;;;;;;4995969;28;20483;-81
2024/01/21 09:11:23;;;;;;;11.20;7.10;;;2.60;90.40;;;;;;4997308;28;21806;-81
2024/01/21 09:13:51;;;;;;;12.40;6.43;;;2.60;90.20;;;;;;4999577;28;21052;-83
2024/01/21 09:16:23;;;;;;;8.03;6.23;;;2.40;89.90;;;;;;4998922;28;20456;-85
2024/01/21 09:18:49;;;;;;;8.30;5.50;;;2.70;89.90;;;;;;4994670;28;20509;-85
2024/01/21 09:21:16;;;;;;;10.43;6.03;;;2.80;89.20;;;;;;4977218;28;21566;-81
2024/01/21 09:23:53;;;;;;;9.17;6.37;;;2.90;88.40;;;;;;4990521;28;20568;-85
2024/01/21 09:26:19;;;;;;;7.63;5.57;;;2.90;88.00;;;;;;4982187;28;20455;-82
2024/01/21 09:28:49;;;;;;;9.87;6.33;;;2.90;88.10;;;;;;4982814;28;20452;-81
2024/01/21 09:31:16;;;;;;;10.30;5.93;;;2.90;88.00;;;;;;4994077;28;20478;-84
2024/01/21 09:33:42;;;;;;;10.07;6.63;;;2.80;88.20;;;;;;4984900;28;21664;-83
2024/01/21 09:36:11;;;;;;;8.00;4.67;;;2.80;88.90;;;;;;5003318;28;20462;-85
2024/01/21 09:38:42;;;;;;;10.40;6.70;;;2.70;89.60;;;;;;4982819;28;20499;-86
2024/01/21 09:41:38;;;;;;;7.93;5.50;;;2.70;90.00;;;;;;4980770;28;20474;-83
2024/01/21 09:44:07;;;;;;;8.23;6.20;;;2.50;90.20;;;;;;4985080;28;20492;-86
2024/01/21 09:46:34;;;;;;;8.97;5.10;;;2.60;90.50;;;;;;4986954;28;20460;-86
2024/01/21 09:49:04;;;;;;;9.60;6.10;;;2.60;90.50;;;;;;5005224;28;20446;-84
2024/01/21 09:51:32;;;;;;;5.63;4.43;;;2.60;90.50;;;;;;4996310;28;20461;-85
2024/01/21 09:54:04;;;;;;;6.50;5.33;;;2.80;90.60;;;;;;4983043;28;20442;-83
2024/01/21 09:56:31;;;;;;;5.63;4.57;;;2.90;90.20;;;;;;4982937;28;20486;-84
2024/01/21 09:59:01;;;;;;;8.30;6.20;;;2.80;90.00;;;;;;4992667;28;20429;-86
2024/01/21 10:01:28;;;;;;;10.67;7.10;;;2.90;90.10;;;;;;4971678;28;20453;-84
2024/01/21 10:03:55;;;;;;;10.83;8.00;;;3.00;90.00;;;;;;4984470;28;20465;-83
2024/01/21 10:06:22;;;;;;;8.40;6.40;;;3.10;89.50;;;;;;4996106;28;20531;-84
2024/01/21 10:08:49;;;;;;;8.40;6.20;;;3.00;89.40;;;;;;4992749;28;20474;-86
2024/01/21 10:11:17;;;;;;;11.80;7.53;;;3.00;89.20;;;;;;4984238;28;20479;-83
2024/01/21 10:13:45;;;;;;;12.73;7.47;;;3.10;89.30;;;;;;4960066;28;20453;-84
2024/01/21 10:16:12;;;;;;;10.27;6.80;;;3.30;88.80;;;;;;4981114;28;20468;-85
2024/01/21 10:18:45;;;;;;;10.43;6.40;;;3.50;87.30;;;;;;4996117;28;20916;-85
2024/01/21 10:21:17;;;;;;;13.23;7.83;;;3.60;87.00;;;;;;4995101;28;20505;-85
2024/01/21 10:23:46;;;;;;;10.23;7.10;;;3.60;85.90;;;;;;4993640;28;20471;-86
2024/01/21 10:26:13;;;;;;;8.03;5.43;;;3.60;85.60;;;;;;4978913;28;20461;-82
2024/01/21 10:28:41;;;;;;;11.60;4.80;;;3.90;85.00;;;;;;4996415;28;20474;-85
2024/01/21 10:31:09;;;;;;;6.20;5.27;;;4.00;84.60;;;;;;4989497;28;20499;-84
2024/01/21 10:33:35;;;;;;;10.23;7.20;;;4.00;84.30;;;;;;4967000;28;20453;-86
2024/01/21 10:36:04;;;;;;;15.83;6.50;;;4.10;84.60;;;;;;4999061;28;20470;-84
2024/01/21 10:38:44;;;;;;;9.50;5.83;;;4.20;84.40;;;;;;4995938;28;20594;-84
2024/01/21 10:41:12;;;;;;;13.63;7.77;;;4.10;83.80;;;;;;4975122;28;20485;-85
2024/01/21 10:43:40;;;;;;;8.33;5.63;;;4.00;83.90;;;;;;4989626;28;20450;-86
2024/01/21 10:46:09;;;;;;;10.93;6.77;;;4.10;84.20;;;;;;4972871;28;21151;-85
2024/01/21 10:48:38;;;;;;;12.50;7.30;;;4.10;84.00;;;;;;4997813;28;20461;-85
2024/01/21 10:51:07;;;;;;;9.50;6.40;;;4.20;83.90;;;;;;5007605;28;20457;-87
2024/01/21 10:53:36;;;;;;;8.33;6.10;;;4.10;84.30;;;;;;5015089;28;20465;-87
2024/01/21 10:56:04;;;;;;;11.53;7.63;;;4.10;85.00;;;;;;4999364;28;20474;-86
2024/01/21 10:58:31;;;;;;;11.10;6.60;;;4.20;85.00;;;;;;4996632;28;20473;-86
2024/01/21 11:01:01;;;;;;;9.90;6.13;;;4.30;84.80;;;;;;4998565;28;21642;-84
2024/01/21 11:03:31;;;;;;;12.17;7.43;;;4.30;85.00;;;;;;5006713;28;20476;-85
2024/01/21 11:06:01;;;;;;;8.27;7.00;;;4.30;84.80;;;;;;4983703;28;20440;-85
2024/01/21 11:08:29;;;;;;;10.87;7.13;;;4.30;85.40;;;;;;5001906;28;20474;-86
2024/01/21 11:11:12;;;;;;;7.03;5.77;;;4.40;85.70;;;;;;4987785;28;20469;-84
2024/01/21 11:13:47;;;;;;;10.87;6.80;;;4.40;86.00;;;;;;5004529;28;20475;-83
2024/01/21 11:16:26;;;;;;;10.43;6.43;;;4.60;86.00;;;;;;5001146;28;20437;-85
2024/01/21 11:19:04;;;;;;;10.20;7.07;;;4.60;86.40;;;;;;4985309;28;20458;-86
2024/01/21 11:21:33;;;;;;;9.00;6.57;;;4.70;86.40;;;;;;4979711;28;20498;-85
2024/01/21 11:24:07;;;;;;;14.03;6.77;;;4.70;86.30;;;;;;4983858;28;20566;-85
2024/01/21 11:26:42;;;;;;;9.00;5.80;;;4.80;86.50;;;;;;4997394;28;20451;-84
2024/01/21 11:29:24;;;;;;;9.47;6.60;;;4.90;86.80;;;;;;4979288;28;20542;-82
2024/01/21 11:31:52;;;;;;;7.93;5.90;;;4.90;86.50;;;;;;4979802;28;20497;-84
2024/01/21 11:34:19;;;;;;;13.03;6.70;;;4.90;86.20;;;;;;4994022;28;20447;-85
2024/01/21 11:36:46;;;;;;;9.77;7.33;;;4.80;86.40;;;;;;4976864;28;20458;-85
2024/01/21 11:39:13;;;;;;;7.97;5.73;;;4.80;86.70;;;;;;4996366;28;20496;-85
2024/01/21 11:41:42;;;;;;;11.10;7.60;;;5.00;86.80;;;;;;4979011;28;20460;-85
2024/01/21 11:44:14;;;;;;;10.23;6.50;;;5.00;86.60;;;;;;5000930;28;20448;-85
2024/01/21 11:46:43;;;;;;;9.80;6.00;;;5.10;86.90;;;;;;5005545;28;20451;-85
2024/01/21 11:49:10;;;;;;;9.90;6.57;;;5.20;87.10;;;;;;4998311;28;20463;-85
2024/01/21 11:51:41;;;;;;;9.63;6.73;;;5.20;86.90;;;;;;4999503;28;20490;-85
2024/01/21 11:54:17;;;;;;;10.27;7.10;;;5.20;86.90;;;;;;4994527;28;20467;-84
2024/01/21 11:56:45;;;;;;;14.83;6.87;;;5.20;87.20;;;;;;4979837;28;20454;-86
2024/01/21 11:59:14;;;;;;;9.40;7.33;;;5.20;86.90;;;;;;4981665;28;20475;-84
2024/01/21 12:01:41;;;;;;;9.67;5.60;;;5.30;87.20;;;;;;4998759;28;21122;-85
2024/01/21 12:04:10;;;;;;;6.17;5.27;;;5.20;87.30;;;;;;4998606;28;21007;-84
2024/01/21 12:06:47;;;;;;;9.97;6.17;;;5.20;87.20;;;;;;4986041;28;20447;-85
2024/01/21 12:09:14;;;;;;;8.60;5.80;;;5.10;87.70;;;;;;4981603;28;20480;-86
2024/01/21 12:11:42;;;;;;;11.23;7.37;;;5.00;88.00;;;;;;4967518;28;20466;-86
2024/01/21 12:14:14;;;;;;;10.80;7.47;;;5.00;87.60;;;;;;4993678;28;20497;-85
2024/01/21 12:16:42;;;;;;;6.90;5.53;;;4.80;87.90;;;;;;5008098;28;20657;-86
2024/01/21 12:19:11;;;;;;;9.37;6.57;;;5.00;88.40;;;;;;5001270;28;20471;-85
2024/01/21 12:21:38;;;;;;;10.63;7.80;;;5.10;88.00;;;;;;5000376;28;20483;-86
2024/01/21 12:24:08;;;;;;;9.80;7.40;;;5.20;87.90;;;;;;4984797;28;20450;-86
2024/01/21 12:26:41;;;;;;;9.07;6.23;;;5.20;87.80;;;;;;4968423;28;20443;-85
2024/01/21 12:29:22;;;;;;;8.13;6.17;;;5.20;87.90;;;;;;4988358;28;20482;-85
2024/01/21 12:31:50;;;;;;;12.30;6.53;;;5.20;88.60;;;;;;5005720;28;20532;-85
2024/01/21 12:34:19;;;;;;;9.53;6.30;;;5.10;89.60;;;;;;4990768;28;20470;-86
2024/01/21 12:36:49;;;;;;;11.17;7.10;;;5.20;90.10;;;;;;4992993;28;20467;-84
2024/01/21 12:39:21;;;;;;;11.13;6.93;;;5.30;90.20;;;;;;4997369;28;20477;-84
2024/01/21 12:41:50;;;;;;;12.60;7.63;;;5.50;90.50;;;;;;4981363;28;20483;-84
2024/01/21 12:44:25;;;;;;;9.07;6.30;;;5.50;90.40;;;;;;4991467;28;20661;-86
2024/01/21 12:46:52;;;;;;;10.00;6.40;;;5.50;90.50;;;;;;4998692;28;20519;-84
2024/01/21 12:49:19;;;;;;;7.80;6.30;;;5.70;90.80;;;;;;4983754;28;20575;-87
2024/01/21 12:51:46;;;;;;;6.80;5.60;;;5.70;91.00;;;;;;4996774;28;21272;-85
2024/01/21 12:54:23;;;;;;;6.63;4.50;;;5.70;91.40;;;;;;4997554;28;20472;-88
2024/01/21 12:57:10;;;;;;;8.20;5.93;;;5.80;92.00;;;;;;4999279;28;20835;-88
2024/01/21 12:59:39;;;;;;;9.70;6.13;;;5.90;92.10;;;;;;4969351;28;20491;-85
2024/01/21 13:02:09;;;;;;;9.23;6.47;;;6.00;92.00;;;;;;5006850;28;20485;-87
2024/01/21 13:04:39;;;;;;;9.07;6.23;;;6.00;92.40;;;;;;4986990;28;20467;-86
2024/01/21 13:07:06;;;;;;;7.77;5.47;;;6.10;92.70;;;;;;4990881;28;20458;-86
2024/01/21 13:09:34;;;;;;;9.47;6.50;;;6.20;92.80;;;;;;5008172;28;20490;-86
2024/01/21 13:12:04;;;;;;;5.73;4.60;;;6.20;92.80;;;;;;5009865;28;20445;-86
2024/01/21 13:14:33;;;;;;;4.50;4.00;;;6.30;93.00;;;;;;5008171;28;20481;-83
2024/01/21 13:17:02;;;;;;;7.63;5.73;;;6.50;93.20;;;;;;4991888;28;20454;-86
2024/01/21 13:19:29;;;;;;;6.27;5.67;;;6.50;93.20;;;;;;5004444;28;20581;-85